»·PEaware :: FFT1653 KBOI-KSLC

FFT1653 :: KBOI-KSLC

FLIGHT INFORMATION

Flight Status: Arrived
Operator:
Frontier Airlines
More flights by this operator :: More flights under this callsign
Pilot: Anonymous 18910 (18910)
Aircraft: AIRBUS A320
(A320)
More flights by this aircraft type
Origin: KBOI Boise Air Terminal/Gowen
United States
Destination: KSLC Salt Lake City Intl
United States
More flights between these airports :: More routes between these airports
Route: BOI3 ROARR BYI SKEES5
File this flight plan on PilotEdge
Remarks:
Altitude:
(Current/Filed)
29,000ft
Speed:
(Current/Filed)
280kts
Departed: 13-Aug-18 07:16 PM
Arrived: 13-Aug-18 07:59 PM
Distance/Time
Traveled:
252nm/0:42
Distance/Time
To Go:
Arrived

Flight Plot

Page will automatically refresh every two minutes.

Flight plan parsing failed; only flown route is shown


Map Options




Map Legend


Flown Route
Filed Route
Departure Airport
Arrival Airport
Navaid (VOR, NDB)
Fix

Horizontal Profiles

Position Reports

Time Latitude Longitude Heading Altitude Ground
Speed
13-Aug-18 19:09 43.567840 -116.224154 101 2852ft 0kts
13-Aug-18 19:10 43.567840 -116.224154 101 2852ft 0kts
13-Aug-18 19:11 43.567840 -116.224154 101 2852ft 0kts
13-Aug-18 19:12 43.567839 -116.224154 101 2852ft 0kts
13-Aug-18 19:13 43.567760 -116.224143 201 2852ft 0kts
13-Aug-18 19:14 43.565824 -116.220569 114 2852ft 33kts
13-Aug-18 19:15 43.562345 -116.210378 115 2852ft 24kts
13-Aug-18 19:16 43.559855 -116.203060 114 2852ft 17kts
13-Aug-18 19:17 43.561410 -116.211251 294 2852ft 112kts
13-Aug-18 19:18 43.580433 -116.269357 294 5067ft 178kts
13-Aug-18 19:19 43.585681 -116.346012 231 7177ft 261kts
13-Aug-18 19:20 43.515552 -116.337849 126 10117ft 313kts
13-Aug-18 19:21 43.484298 -116.212878 107 11681ft 382kts
13-Aug-18 19:22 43.450902 -116.062582 107 12802ft 432kts
13-Aug-18 19:23 43.414763 -115.902534 108 14687ft 445kts
13-Aug-18 19:24 43.377384 -115.738624 108 16418ft 455kts
13-Aug-18 19:25 43.338848 -115.571161 108 17976ft 465kts
13-Aug-18 19:26 43.299240 -115.400607 110 19346ft 474kts
13-Aug-18 19:27 43.234058 -115.244326 124 20591ft 479kts
13-Aug-18 19:28 43.142954 -115.048321 125 22050ft 488kts
13-Aug-18 19:29 43.056852 -114.864288 125 23245ft 495kts
13-Aug-18 19:30 42.970421 -114.680728 125 24173ft 505kts
13-Aug-18 19:31 42.894039 -114.519421 125 25058ft 508kts
13-Aug-18 19:32 42.817515 -114.358681 125 26109ft 507kts
13-Aug-18 19:33 42.740749 -114.198324 126 27221ft 504kts
13-Aug-18 19:34 42.665049 -114.041028 126 28501ft 498kts
13-Aug-18 19:35 42.588990 -113.884576 129 29051ft 498kts
13-Aug-18 19:36 42.493970 -113.750086 139 29054ft 495kts
13-Aug-18 19:37 42.396566 -113.619853 138 29054ft 493kts
13-Aug-18 19:38 42.298761 -113.490115 138 29054ft 494kts
13-Aug-18 19:39 42.201311 -113.360887 137 29055ft 490kts
13-Aug-18 19:40 42.104211 -113.232767 138 29053ft 491kts
13-Aug-18 19:41 42.006514 -113.104510 138 28403ft 491kts
13-Aug-18 19:42 41.908592 -112.976593 138 27445ft 493kts
13-Aug-18 19:43 41.818713 -112.859688 138 26597ft 491kts
13-Aug-18 19:44 41.721496 -112.733755 138 25642ft 483kts
13-Aug-18 19:45 41.625307 -112.609756 137 23168ft 486kts
13-Aug-18 19:46 41.529905 -112.489163 142 19689ft 457kts
13-Aug-18 19:47 41.423730 -112.402033 153 17104ft 447kts
13-Aug-18 19:48 41.315560 -112.325388 153 17024ft 443kts
13-Aug-18 19:49 41.209234 -112.249044 150 15809ft 431kts
13-Aug-18 19:50 41.109307 -112.172679 150 13181ft 414kts
13-Aug-18 19:51 41.005248 -112.132031 171 11798ft 370kts
13-Aug-18 19:52 40.915251 -112.112463 171 11009ft 285kts
13-Aug-18 19:53 40.846256 -112.102984 176 10528ft 252kts
13-Aug-18 19:54 40.777340 -112.095723 176 9051ft 249kts
13-Aug-18 19:55 40.708293 -112.083652 163 9026ft 253kts
13-Aug-18 19:56 40.644022 -112.045917 123 8046ft 241kts
13-Aug-18 19:57 40.664959 -111.982693 27 7077ft 216kts
13-Aug-18 19:58 40.717291 -111.988099 349 5585ft 174kts
13-Aug-18 19:59 40.760129 -111.993696 353 4557ft 150kts
13-Aug-18 20:00 40.790605 -111.996677 22 4236ft 9kts
13-Aug-18 20:01 40.790963 -111.994772 95 4236ft 13kts
13-Aug-18 20:02 40.791353 -111.988472 83 4236ft 18kts
13-Aug-18 20:03 40.791714 -111.982893 85 4236ft 14kts
13-Aug-18 20:04 40.791599 -111.977165 176 4236ft 17kts
13-Aug-18 20:05 40.786568 -111.977495 204 4236ft 14kts
13-Aug-18 20:06 40.785621 -111.978651 239 4236ft 0kts
13-Aug-18 20:07 40.785621 -111.978651 239 4236ft 0kts
13-Aug-18 20:08 40.785621 -111.978651 239 4236ft 0kts
13-Aug-18 20:09 40.785621 -111.978651 239 4236ft 0kts
13-Aug-18 20:10 40.785621 -111.978651 239 4236ft 0kts
13-Aug-18 20:11 40.785621 -111.978651 239 4236ft 0kts
13-Aug-18 20:12 40.785621 -111.978651 239 4236ft 0kts
13-Aug-18 20:13 40.785621 -111.978651 239 4236ft 0kts
13-Aug-18 20:14 40.785621 -111.978651 239 4236ft 0kts

Navigation Log

Ident Type
Flight plan parsing failed, navigation log unavailable